Ashaiiu, Virginia
Current Conditions -  °F | °C
As of 5:54 PM on Thursday 18 Dec 2014 (Local Time) from KOFP Reporting Station
Clear Clear  
Wind Chill:   Ceiling: Unl
Heat Index:   Visibility: 10mi
Dew Point: -4°   Wind: 0mph
Humidity: 73%   Direction: NA
Pressure: 30.11"   Gusts: NA
Location:  37.7534°N, 77.495°W
Report Text: KOFP 182254Z AUTO 00000KT 10SM CLR 00/M04 A3011 RMK AO2 SLP197 T00001044
Loading
Personal Weather Stations






























Interactive Weather Map New forecast layout! Learn more

10-Day Weather Forecast

Advertisements
Track Severe Weather on mobile